createdAt,value
2023-04-18T00:01:57.213Z,3.77
2023-04-18T00:04:26.768Z,4.20
2023-04-18T00:06:54.784Z,4.33
2023-04-18T00:09:24.529Z,3.90
2023-04-18T00:11:52.741Z,4.47
2023-04-18T00:14:21.173Z,4.10
2023-04-18T00:16:49.085Z,4.40
2023-04-18T00:19:18.339Z,4.70
2023-04-18T00:21:47.656Z,4.00
2023-04-18T00:24:15.948Z,4.20
2023-04-18T00:26:43.899Z,4.90
2023-04-18T00:29:11.820Z,4.43
2023-04-18T00:31:39.866Z,4.70
2023-04-18T00:34:07.856Z,4.30
2023-04-18T00:36:35.798Z,4.43
2023-04-18T00:39:05.167Z,4.60
2023-04-18T00:41:33.207Z,4.27
2023-04-18T00:44:01.189Z,4.60
2023-04-18T00:46:29.287Z,3.70
2023-04-18T00:48:57.378Z,3.90
2023-04-18T00:51:25.940Z,3.90
2023-04-18T00:53:55.088Z,3.93
2023-04-18T00:56:25.890Z,3.33
2023-04-18T00:58:54.353Z,3.90
2023-04-18T01:01:22.263Z,4.10
2023-04-18T01:03:50.409Z,3.70
2023-04-18T01:06:18.966Z,3.53
2023-04-18T01:08:47.321Z,3.53
2023-04-18T01:11:15.269Z,3.20
2023-04-18T01:13:44.574Z,3.63
2023-04-18T01:16:12.529Z,3.33
2023-04-18T01:18:40.448Z,3.20
2023-04-18T01:21:09.879Z,3.37
2023-04-18T01:23:38.219Z,3.07
2023-04-18T01:26:08.607Z,3.40
2023-04-18T01:28:38.038Z,3.57
2023-04-18T01:31:06.288Z,3.53
2023-04-18T01:33:37.915Z,2.80
2023-04-18T01:36:06.267Z,3.23
2023-04-18T01:38:34.178Z,3.70
2023-04-18T01:41:02.316Z,3.50
2023-04-18T01:43:31.739Z,3.03
2023-04-18T01:45:59.820Z,3.50
2023-04-18T01:48:29.276Z,3.93
2023-04-18T01:50:57.199Z,3.90
2023-04-18T01:53:25.607Z,3.63
2023-04-18T01:55:53.567Z,3.70
2023-04-18T01:58:23.684Z,3.27
2023-04-18T02:00:54.207Z,3.00
2023-04-18T02:03:22.834Z,3.13
2023-04-18T02:05:51.104Z,3.10
2023-04-18T02:08:19.418Z,3.47
2023-04-18T02:10:47.319Z,3.30
2023-04-18T02:13:16.130Z,3.20
2023-04-18T02:15:45.156Z,3.27
2023-04-18T02:18:17.437Z,3.03
2023-04-18T02:20:45.629Z,3.27
2023-04-18T02:23:13.602Z,3.27
2023-04-18T02:25:41.577Z,3.13
2023-04-18T02:28:10.702Z,3.13
2023-04-18T02:30:38.855Z,3.07
2023-04-18T02:33:06.786Z,2.83
2023-04-18T02:35:38.225Z,2.90
2023-04-18T02:38:06.519Z,3.17
2023-04-18T02:40:34.483Z,3.07
2023-04-18T02:43:02.570Z,3.03
2023-04-18T02:45:30.493Z,3.23
2023-04-18T02:48:00.987Z,3.37
2023-04-18T02:50:29.538Z,3.60
2023-04-18T02:53:00.147Z,3.50
2023-04-18T02:55:38.260Z,3.77
2023-04-18T02:58:06.336Z,3.90
2023-04-18T03:00:54.971Z,3.37
2023-04-18T03:03:44.731Z,3.70
2023-04-18T03:06:32.638Z,3.57
2023-04-18T03:09:05.042Z,3.43
2023-04-18T03:11:36.423Z,3.87
2023-04-18T03:14:05.653Z,3.30
2023-04-18T03:16:50.020Z,3.70
2023-04-18T03:19:22.622Z,4.00
2023-04-18T03:21:52.281Z,3.73
2023-04-18T03:24:21.615Z,3.67
2023-04-18T03:26:52.151Z,3.30
2023-04-18T03:29:23.732Z,3.60
2023-04-18T03:31:52.663Z,3.07
2023-04-18T03:34:20.805Z,2.90
2023-04-18T03:36:49.007Z,3.20
2023-04-18T03:39:18.669Z,3.10
2023-04-18T03:41:47.999Z,3.50
2023-04-18T03:44:16.580Z,3.30
2023-04-18T03:46:45.284Z,3.30
2023-04-18T03:49:13.298Z,3.50
2023-04-18T03:51:47.683Z,4.70
2023-04-18T03:54:16.323Z,4.17
2023-04-18T03:56:45.188Z,3.90
2023-04-18T03:59:16.374Z,4.10
2023-04-18T04:01:48.160Z,3.37
2023-04-18T04:04:16.537Z,3.50
2023-04-18T04:06:44.765Z,3.10
2023-04-18T04:09:13.422Z,3.50
2023-04-18T04:11:41.631Z,4.03
2023-04-18T04:14:13.045Z,4.10
2023-04-18T04:16:47.037Z,3.30
2023-04-18T04:19:20.781Z,4.30
2023-04-18T04:21:56.299Z,3.90
2023-04-18T04:24:24.264Z,3.50
2023-04-18T04:26:53.860Z,3.30
2023-04-18T04:29:25.031Z,3.90
2023-04-18T04:31:55.663Z,3.60
2023-04-18T04:34:34.380Z,4.20
2023-04-18T04:37:05.006Z,4.23
2023-04-18T04:39:39.447Z,4.00
2023-04-18T04:42:42.402Z,4.93
2023-04-18T04:45:17.637Z,5.90
2023-04-18T04:47:48.549Z,6.87
2023-04-18T04:50:16.638Z,6.33
2023-04-18T04:52:44.627Z,5.70
2023-04-18T04:55:12.673Z,3.87
2023-04-18T04:57:42.278Z,3.70
2023-04-18T05:00:30.455Z,3.93
2023-04-18T05:02:59.973Z,3.83
2023-04-18T05:05:28.885Z,3.70
2023-04-18T05:07:58.473Z,4.47
2023-04-18T05:10:26.593Z,3.50
2023-04-18T05:12:54.569Z,4.20
2023-04-18T05:15:22.424Z,4.60
2023-04-18T05:17:50.346Z,4.10
2023-04-18T05:20:19.647Z,4.30
2023-04-18T05:22:47.601Z,4.43
2023-04-18T05:25:15.717Z,4.33
2023-04-18T05:27:44.181Z,3.83
2023-04-18T05:30:12.483Z,3.93
2023-04-18T05:32:40.420Z,4.43
2023-04-18T05:35:09.273Z,5.80
2023-04-18T05:37:38.700Z,4.50
2023-04-18T05:40:08.115Z,4.60
2023-04-18T05:42:36.021Z,4.03
2023-04-18T05:45:03.923Z,4.57
2023-04-18T05:47:33.622Z,4.50
2023-04-18T05:50:01.620Z,4.60
2023-04-18T05:52:29.550Z,3.97
2023-04-18T05:54:58.795Z,4.20
2023-04-18T05:57:26.662Z,4.53
2023-04-18T05:59:54.494Z,4.47
2023-04-18T06:02:24.598Z,4.20
2023-04-18T06:04:52.848Z,4.30
2023-04-18T06:07:21.433Z,4.40
2023-04-18T06:09:49.876Z,4.70
2023-04-18T06:12:19.085Z,4.80
2023-04-18T06:14:47.192Z,4.60
2023-04-18T06:17:15.283Z,4.60
2023-04-18T06:19:43.268Z,5.17
2023-04-18T06:22:11.296Z,4.20
2023-04-18T06:24:39.163Z,4.03
2023-04-18T06:27:10.735Z,3.43
2023-04-18T06:29:44.378Z,3.50
2023-04-18T06:32:12.240Z,3.80
2023-04-18T06:34:40.686Z,3.90
2023-04-18T06:37:08.756Z,3.60
2023-04-18T06:39:36.692Z,4.03
2023-04-18T06:42:04.876Z,4.03
2023-04-18T06:44:33.061Z,4.90
2023-04-18T06:47:02.396Z,3.63
2023-04-18T06:49:30.699Z,4.00
2023-04-18T06:51:58.614Z,3.90
2023-04-18T06:54:26.610Z,4.37
2023-04-18T06:56:54.501Z,4.40
2023-04-18T06:59:23.357Z,4.50
2023-04-18T07:01:52.351Z,4.40
2023-04-18T07:04:21.722Z,5.10
2023-04-18T07:06:49.661Z,4.70
2023-04-18T07:09:17.638Z,4.70
2023-04-18T07:11:45.519Z,5.37
2023-04-18T07:14:13.554Z,5.27
2023-04-18T07:16:41.818Z,5.13
2023-04-18T07:19:09.846Z,5.37
2023-04-18T07:21:40.619Z,5.43
2023-04-18T07:24:08.759Z,5.30
2023-04-18T07:26:36.746Z,4.70
2023-04-18T07:29:05.002Z,5.67
2023-04-18T07:31:33.008Z,5.50
2023-04-18T07:34:01.082Z,5.80
2023-04-18T07:36:29.324Z,5.50
2023-04-18T07:38:58.809Z,5.67
2023-04-18T07:41:26.709Z,5.07
2023-04-18T07:43:54.656Z,6.60
2023-04-18T07:46:22.726Z,6.50
2023-04-18T07:48:50.894Z,14.70
2023-04-18T07:51:18.772Z,10.80
2023-04-18T07:53:46.701Z,11.60
2023-04-18T07:56:16.034Z,11.17
2023-04-18T07:58:43.942Z,9.90
2023-04-18T08:01:14.022Z,7.60
2023-04-18T08:03:42.360Z,5.43
2023-04-18T08:06:10.456Z,5.63
2023-04-18T08:08:38.296Z,5.20
2023-04-18T08:11:06.303Z,5.13
2023-04-18T08:13:35.655Z,12.00
2023-04-18T08:16:03.585Z,9.10
2023-04-18T08:18:31.578Z,9.00
2023-04-18T08:20:59.478Z,7.80
2023-04-18T08:23:27.363Z,5.57
2023-04-18T08:25:55.290Z,7.87
2023-04-18T08:28:23.198Z,6.53
2023-04-18T08:30:52.383Z,6.13
2023-04-18T08:33:20.399Z,6.00
2023-04-18T08:35:48.387Z,6.10
2023-04-18T08:38:17.188Z,10.50
2023-04-18T08:40:45.814Z,6.57
2023-04-18T08:43:15.085Z,7.37
2023-04-18T08:45:43.554Z,7.20
2023-04-18T08:48:14.818Z,6.60
2023-04-18T08:50:43.632Z,7.47
2023-04-18T08:53:11.941Z,6.67
2023-04-18T08:55:40.458Z,5.47
2023-04-18T08:58:08.435Z,5.83
2023-04-18T09:00:36.349Z,6.27
2023-04-18T09:03:04.651Z,7.70
2023-04-18T09:05:35.565Z,7.20
2023-04-18T09:08:23.936Z,9.03
2023-04-18T09:10:51.838Z,6.37
2023-04-18T09:13:38.740Z,7.60
2023-04-18T09:16:07.868Z,12.30
2023-04-18T09:18:36.266Z,9.60
2023-04-18T09:21:19.663Z,7.53
2023-04-18T09:23:47.952Z,7.20
2023-04-18T09:26:33.524Z,7.37
2023-04-18T09:29:03.212Z,6.40
2023-04-18T09:31:31.510Z,5.97
2023-04-18T09:34:00.734Z,6.20
2023-04-18T09:36:31.394Z,6.43
2023-04-18T09:38:59.410Z,6.70
2023-04-18T09:41:27.490Z,8.60
2023-04-18T09:44:13.531Z,9.23
2023-04-18T09:46:46.108Z,7.50
2023-04-18T09:49:15.203Z,6.80
2023-04-18T09:51:46.102Z,6.17
2023-04-18T09:54:16.683Z,6.57
2023-04-18T09:56:45.992Z,6.17
2023-04-18T09:59:21.269Z,6.17
2023-04-18T10:01:50.879Z,5.33
2023-04-18T10:04:19.827Z,5.63
2023-04-18T10:06:49.940Z,5.33
2023-04-18T10:09:18.660Z,6.40
2023-04-18T10:11:46.660Z,5.23
2023-04-18T10:14:17.345Z,5.20
2023-04-18T10:16:48.625Z,5.17
2023-04-18T10:19:22.867Z,5.70
2023-04-18T10:21:57.093Z,5.20
2023-04-18T10:24:52.769Z,4.40
2023-04-18T10:27:40.998Z,4.70
2023-04-18T10:30:09.975Z,10.77
2023-04-18T10:32:37.901Z,5.63
2023-04-18T10:35:06.420Z,4.27
2023-04-18T10:37:36.137Z,4.70
2023-04-18T10:40:06.601Z,4.07
2023-04-18T10:42:59.604Z,3.90
2023-04-18T10:45:28.870Z,3.70
2023-04-18T10:48:24.729Z,3.67
2023-04-18T10:51:15.681Z,4.70
2023-04-18T10:53:52.669Z,3.67
2023-04-18T10:56:21.036Z,3.63
2023-04-18T10:58:51.960Z,3.90
2023-04-18T11:01:31.617Z,3.90
2023-04-18T11:04:00.977Z,3.30
2023-04-18T11:06:30.335Z,3.47
2023-04-18T11:09:12.534Z,3.70
2023-04-18T11:11:41.482Z,4.53
2023-04-18T11:14:09.424Z,4.23
2023-04-18T11:16:38.174Z,3.50
2023-04-18T11:19:23.291Z,5.00
2023-04-18T11:21:52.053Z,4.33
2023-04-18T11:24:24.987Z,3.80
2023-04-18T11:26:55.635Z,4.00
2023-04-18T11:29:23.866Z,3.77
2023-04-18T11:31:54.044Z,3.90
2023-04-18T11:34:29.268Z,4.90
2023-04-18T11:36:57.346Z,4.40
2023-04-18T11:39:26.967Z,3.90
2023-04-18T11:41:57.143Z,6.10
2023-04-18T11:44:25.609Z,8.63
2023-04-18T11:46:53.548Z,4.40
2023-04-18T11:49:29.278Z,4.10
2023-04-18T11:51:57.219Z,4.50
2023-04-18T11:54:39.937Z,4.13
2023-04-18T11:57:20.005Z,4.73
2023-04-18T11:59:52.956Z,4.47
2023-04-18T12:02:22.607Z,6.73
2023-04-18T12:04:53.426Z,6.20
2023-04-18T12:07:46.338Z,4.83
2023-04-18T12:10:27.660Z,4.73
2023-04-18T12:12:58.602Z,5.67
2023-04-18T12:15:28.651Z,5.27
2023-04-18T12:18:01.398Z,4.30
2023-04-18T12:20:37.451Z,4.53
2023-04-18T12:23:05.718Z,4.57
2023-04-18T12:25:35.340Z,5.90
2023-04-18T12:28:04.756Z,4.83
2023-04-18T12:30:36.809Z,4.50
2023-04-18T12:33:06.603Z,4.23
2023-04-18T12:35:34.626Z,4.23
2023-04-18T12:38:03.761Z,4.30
2023-04-18T12:40:32.070Z,4.00
2023-04-18T12:43:03.419Z,3.97
2023-04-18T12:45:31.827Z,3.93
2023-04-18T12:47:59.878Z,3.90
2023-04-18T12:50:28.125Z,4.60
2023-04-18T12:52:58.408Z,3.80
2023-04-18T12:55:26.938Z,3.97
2023-04-18T12:57:55.575Z,3.70
2023-04-18T13:00:29.889Z,4.80
2023-04-18T13:02:58.735Z,4.10
2023-04-18T13:05:30.663Z,5.17
2023-04-18T13:08:12.828Z,3.40
2023-04-18T13:10:44.606Z,3.57
2023-04-18T13:13:12.624Z,3.67
2023-04-18T13:15:42.605Z,5.47
2023-04-18T13:18:10.491Z,5.13
2023-04-18T13:20:38.412Z,3.43
2023-04-18T13:23:06.366Z,4.00
2023-04-18T13:25:34.358Z,3.60
2023-04-18T13:28:02.239Z,3.50
2023-04-18T13:30:30.299Z,3.30
2023-04-18T13:32:59.699Z,5.00
2023-04-18T13:35:27.722Z,4.13
2023-04-18T13:37:55.986Z,3.97
2023-04-18T13:40:24.242Z,4.77
2023-04-18T13:42:52.488Z,4.20
2023-04-18T13:45:20.504Z,4.57
2023-04-18T13:47:48.464Z,6.10
2023-04-18T13:50:17.756Z,5.60
2023-04-18T13:52:47.081Z,5.27
2023-04-18T13:55:16.148Z,4.07
2023-04-18T13:57:44.025Z,3.80
2023-04-18T14:00:14.322Z,3.97
2023-04-18T14:02:42.624Z,4.53
2023-04-18T14:05:10.972Z,3.37
2023-04-18T14:07:40.583Z,3.80
2023-04-18T14:10:09.306Z,3.90
2023-04-18T14:12:37.537Z,4.63
2023-04-18T14:15:06.441Z,3.73
2023-04-18T14:17:34.814Z,4.40
2023-04-18T14:20:04.308Z,4.40
2023-04-18T14:22:32.164Z,4.80
2023-04-18T14:25:01.510Z,4.67
2023-04-18T14:27:29.595Z,4.43
2023-04-18T14:29:57.399Z,4.07
2023-04-18T14:32:25.370Z,4.40
2023-04-18T14:34:53.433Z,4.30
2023-04-18T14:37:22.289Z,4.53
2023-04-18T14:39:50.576Z,4.60
2023-04-18T14:42:19.901Z,4.43
2023-04-18T14:44:48.319Z,4.53
2023-04-18T14:47:16.456Z,4.20
2023-04-18T14:49:44.367Z,4.73
2023-04-18T14:52:12.330Z,4.40
2023-04-18T14:54:40.230Z,4.90
2023-04-18T14:57:08.306Z,4.20
2023-04-18T14:59:37.452Z,4.40
2023-04-18T15:02:05.372Z,4.67
2023-04-18T15:04:33.365Z,4.53
2023-04-18T15:07:01.865Z,4.60
2023-04-18T15:09:29.954Z,5.23
2023-04-18T15:11:58.268Z,5.00
2023-04-18T15:14:26.161Z,5.67
2023-04-18T15:16:55.943Z,5.20
2023-04-18T15:19:23.942Z,6.80
2023-04-18T15:21:52.340Z,4.73
2023-04-18T15:24:20.276Z,4.90
2023-04-18T15:26:48.321Z,3.40
2023-04-18T15:29:16.199Z,4.23
2023-04-18T15:31:45.105Z,4.47
2023-04-18T15:34:14.580Z,5.57
2023-04-18T15:36:42.532Z,5.00
2023-04-18T15:39:10.644Z,4.70
2023-04-18T15:41:39.160Z,5.20
2023-04-18T15:44:08.039Z,5.10
2023-04-18T15:46:37.536Z,5.20
2023-04-18T15:49:05.607Z,5.20
2023-04-18T15:51:34.799Z,5.57
2023-04-18T15:54:02.723Z,6.97
2023-04-18T15:56:33.058Z,5.40
2023-04-18T15:59:05.118Z,5.27
2023-04-18T16:01:33.385Z,6.67
2023-04-18T16:04:01.510Z,5.50
2023-04-18T16:06:31.213Z,5.07
2023-04-18T16:09:00.596Z,5.20
2023-04-18T16:11:28.894Z,5.07
2023-04-18T16:13:56.889Z,5.00
2023-04-18T16:16:24.870Z,4.80
2023-04-18T16:18:52.721Z,4.40
2023-04-18T16:21:20.988Z,12.63
2023-04-18T16:23:49.399Z,6.43
2023-04-18T16:26:18.618Z,5.40
2023-04-18T16:28:48.077Z,5.00
2023-04-18T16:31:16.359Z,4.70
2023-04-18T16:33:45.253Z,4.27
2023-04-18T16:36:13.217Z,5.10
2023-04-18T16:38:41.189Z,4.33
2023-04-18T16:41:09.197Z,4.40
2023-04-18T16:43:38.529Z,4.57
2023-04-18T16:46:06.719Z,4.37
2023-04-18T16:48:37.944Z,5.33
2023-04-18T16:51:06.589Z,4.70
2023-04-18T16:53:34.459Z,4.40
2023-04-18T16:56:03.160Z,5.20
2023-04-18T16:58:31.129Z,4.97
2023-04-18T17:01:02.371Z,4.40
2023-04-18T17:03:30.557Z,4.80
2023-04-18T17:05:58.594Z,4.90
2023-04-18T17:08:28.574Z,4.80
2023-04-18T17:10:56.544Z,4.70
2023-04-18T17:13:27.002Z,4.00
2023-04-18T17:15:55.195Z,4.80
2023-04-18T17:18:24.545Z,4.63
2023-04-18T17:20:52.626Z,4.97
2023-04-18T17:23:21.826Z,4.60
2023-04-18T17:25:49.889Z,5.00
2023-04-18T17:28:18.042Z,4.30
2023-04-18T17:30:46.352Z,5.23
2023-04-18T17:33:14.151Z,4.40
2023-04-18T17:35:43.431Z,4.67
2023-04-18T17:38:11.581Z,4.37
2023-04-18T17:40:40.426Z,4.43
2023-04-18T17:43:08.375Z,4.30
2023-04-18T17:45:37.267Z,5.07
2023-04-18T17:48:05.935Z,5.03
2023-04-18T17:50:36.986Z,4.13
2023-04-18T17:53:06.326Z,4.30
2023-04-18T17:55:34.175Z,4.17
2023-04-18T17:58:02.104Z,3.90
2023-04-18T18:00:31.184Z,4.90
2023-04-18T18:03:01.354Z,4.23
2023-04-18T18:05:30.098Z,3.93
2023-04-18T18:07:58.341Z,4.57
2023-04-18T18:10:28.086Z,4.20
2023-04-18T18:12:56.169Z,4.70
2023-04-18T18:15:25.139Z,5.10
2023-04-18T18:17:53.235Z,5.30
2023-04-18T18:20:21.585Z,11.87
2023-04-18T18:22:49.527Z,5.23
2023-04-18T18:25:17.443Z,4.30
2023-04-18T18:27:46.744Z,4.30
2023-04-18T18:30:14.876Z,4.80
2023-04-18T18:32:42.788Z,5.00
2023-04-18T18:35:10.757Z,4.87
2023-04-18T18:37:38.736Z,4.80
2023-04-18T18:40:08.541Z,4.63
2023-04-18T18:42:36.470Z,5.43
2023-04-18T18:45:07.635Z,5.83
2023-04-18T18:47:37.473Z,4.63
2023-04-18T18:50:07.557Z,5.50
2023-04-18T18:52:35.601Z,4.60
2023-04-18T18:55:03.928Z,5.43
2023-04-18T18:57:32.046Z,4.87
2023-04-18T18:59:59.939Z,5.23
2023-04-18T19:02:29.364Z,4.73
2023-04-18T19:04:57.577Z,4.80
2023-04-18T19:07:25.668Z,4.63
2023-04-18T19:09:55.230Z,5.13
2023-04-18T19:12:23.120Z,4.73
2023-04-18T19:14:51.072Z,6.17
2023-04-18T19:17:21.897Z,5.10
2023-04-18T19:19:51.400Z,5.23
2023-04-18T19:22:19.275Z,4.90
2023-04-18T19:24:47.485Z,4.57
2023-04-18T19:27:15.309Z,5.40
2023-04-18T19:29:43.102Z,5.17
2023-04-18T19:32:11.123Z,4.73
2023-04-18T19:34:39.038Z,6.00
2023-04-18T19:37:08.300Z,5.73
2023-04-18T19:39:36.386Z,5.60
2023-04-18T19:42:05.090Z,4.73
2023-04-18T19:44:32.966Z,5.13
2023-04-18T19:47:00.918Z,5.30
2023-04-18T19:49:28.845Z,6.73
2023-04-18T19:51:56.924Z,9.30
2023-04-18T19:54:26.612Z,4.40
2023-04-18T19:56:54.549Z,4.60
2023-04-18T19:59:22.392Z,4.50
2023-04-18T20:01:50.363Z,7.17
2023-04-18T20:04:18.323Z,5.30
2023-04-18T20:06:46.401Z,4.23
2023-04-18T20:09:16.930Z,4.73
2023-04-18T20:11:48.422Z,4.70
2023-04-18T20:14:16.400Z,4.70
2023-04-18T20:16:45.898Z,4.60
2023-04-18T20:19:14.584Z,4.60
2023-04-18T20:21:42.770Z,3.93
2023-04-18T20:24:10.681Z,4.13
2023-04-18T20:26:38.556Z,5.03
2023-04-18T20:29:08.365Z,4.70
2023-04-18T20:31:37.667Z,5.13
2023-04-18T20:34:05.603Z,5.60
2023-04-18T20:36:34.379Z,4.63
2023-04-18T20:39:03.478Z,4.57
2023-04-18T20:41:32.470Z,5.60
2023-04-18T20:44:05.068Z,4.90
2023-04-18T20:46:34.506Z,4.67
2023-04-18T20:49:02.616Z,4.97
2023-04-18T20:51:31.770Z,5.30
2023-04-18T20:53:59.622Z,4.53
2023-04-18T20:56:27.672Z,5.30
2023-04-18T20:58:55.640Z,5.00
2023-04-18T21:01:23.753Z,5.27
2023-04-18T21:03:53.321Z,5.07
2023-04-18T21:06:22.130Z,5.13
2023-04-18T21:08:50.655Z,5.00
2023-04-18T21:11:18.585Z,5.13
2023-04-18T21:13:46.495Z,4.70
2023-04-18T21:16:14.597Z,4.97
2023-04-18T21:18:42.584Z,5.00
2023-04-18T21:21:12.447Z,5.13
2023-04-18T21:23:43.861Z,5.43
2023-04-18T21:26:13.368Z,5.00
2023-04-18T21:28:58.204Z,5.60
2023-04-18T21:31:27.156Z,4.97
2023-04-18T21:33:55.566Z,5.40
2023-04-18T21:36:26.375Z,5.40
2023-04-18T21:38:55.405Z,5.10
2023-04-18T21:41:24.416Z,4.80
2023-04-18T21:43:52.831Z,5.60
2023-04-18T21:46:21.113Z,5.93
2023-04-18T21:48:49.534Z,5.37
2023-04-18T21:51:17.802Z,5.70
2023-04-18T21:53:47.133Z,5.50
2023-04-18T21:56:15.118Z,4.80
2023-04-18T21:58:43.206Z,5.07
2023-04-18T22:01:11.300Z,5.40
2023-04-18T22:03:39.574Z,5.23
2023-04-18T22:06:10.438Z,5.43
2023-04-18T22:08:38.434Z,5.60
2023-04-18T22:11:09.166Z,5.43
2023-04-18T22:13:37.126Z,5.20
2023-04-18T22:16:05.439Z,5.47
2023-04-18T22:18:34.567Z,6.60
2023-04-18T22:21:03.507Z,6.10
2023-04-18T22:23:31.958Z,6.10
2023-04-18T22:26:00.059Z,5.63
2023-04-18T22:28:29.534Z,6.40
2023-04-18T22:30:57.813Z,5.63
2023-04-18T22:33:26.018Z,6.00
2023-04-18T22:35:54.200Z,6.00
2023-04-18T22:38:22.125Z,6.50
2023-04-18T22:40:50.277Z,6.23
2023-04-18T22:43:22.605Z,5.80
2023-04-18T22:45:52.387Z,5.90
2023-04-18T22:48:20.411Z,6.40
2023-04-18T22:50:49.961Z,5.87
2023-04-18T22:53:18.296Z,5.70
2023-04-18T22:55:46.595Z,6.63
2023-04-18T22:58:14.698Z,6.00
2023-04-18T23:00:43.144Z,6.60
2023-04-18T23:03:12.552Z,6.13
2023-04-18T23:05:41.358Z,5.77
2023-04-18T23:08:09.311Z,6.30
2023-04-18T23:10:37.142Z,6.30
2023-04-18T23:13:05.214Z,6.50
2023-04-18T23:15:33.289Z,6.30
2023-04-18T23:18:01.454Z,6.00
2023-04-18T23:20:30.766Z,5.90
2023-04-18T23:22:58.596Z,6.40
2023-04-18T23:25:26.481Z,5.30
2023-04-18T23:27:54.414Z,5.60
2023-04-18T23:30:22.381Z,6.00
2023-04-18T23:32:50.267Z,6.90
2023-04-18T23:35:18.474Z,5.50
2023-04-18T23:37:47.697Z,6.53
2023-04-18T23:40:15.619Z,6.20
2023-04-18T23:42:43.801Z,6.73
2023-04-18T23:45:12.707Z,6.17
2023-04-18T23:47:40.607Z,7.00
2023-04-18T23:50:09.618Z,6.30
2023-04-18T23:52:38.522Z,6.73
2023-04-18T23:55:08.767Z,6.50
2023-04-18T23:57:36.731Z,6.53
